createdAt,value
2022-12-23T21:02:52.834Z,100537.59
2022-12-23T21:05:20.567Z,100548.31
2022-12-23T21:07:48.284Z,100558.91
2022-12-23T21:10:16.118Z,100560.72
2022-12-23T21:12:43.856Z,100565.25
2022-12-23T21:15:11.793Z,100563.22
2022-12-23T21:17:39.529Z,100569.84
2022-12-23T21:20:10.127Z,100579.34
2022-12-23T21:22:38.000Z,100584.56
2022-12-23T21:25:06.321Z,100602.91
2022-12-23T21:27:34.035Z,100585.34
2022-12-23T21:30:01.820Z,100595.72
2022-12-23T21:32:29.659Z,100594.22
2022-12-23T21:34:57.424Z,100609.19
2022-12-23T21:37:27.320Z,100606.81
2022-12-23T21:39:55.043Z,100606.25
2022-12-23T21:42:22.786Z,100619.84
2022-12-23T21:44:50.561Z,100619.44
2022-12-23T21:47:18.332Z,100622.25
2022-12-23T21:49:46.136Z,100631.13
2022-12-23T21:52:13.821Z,100637.59
2022-12-23T21:54:42.928Z,100635.66
2022-12-23T21:57:10.668Z,100652.06
2022-12-23T21:59:38.365Z,100658.25
2022-12-23T22:02:06.080Z,100658.53
2022-12-23T22:04:33.801Z,100654.91
2022-12-23T22:07:01.534Z,100660.16
2022-12-23T22:09:29.273Z,100665.34
2022-12-23T22:11:58.711Z,100665.19
2022-12-23T22:14:26.413Z,100674.38
2022-12-23T22:16:54.190Z,100670.97
2022-12-23T22:19:21.927Z,100677.38
2022-12-23T22:21:49.646Z,100689.72
2022-12-23T22:24:17.352Z,100686.50
2022-12-23T22:26:45.142Z,100695.88
2022-12-23T22:29:14.198Z,100702.84
2022-12-23T22:31:45.820Z,100691.06
2022-12-23T22:34:15.983Z,100694.03
2022-12-23T22:36:43.907Z,100693.91
2022-12-23T22:39:17.739Z,100712.06
2022-12-23T22:41:47.679Z,100716.22
2022-12-23T22:44:16.770Z,100727.38
2022-12-23T22:46:44.740Z,100730.84
2022-12-23T22:49:12.908Z,100723.72
2022-12-23T22:51:41.269Z,100734.06
2022-12-23T22:54:09.800Z,100738.88
2022-12-23T22:56:37.806Z,100758.81
2022-12-23T22:59:05.822Z,100751.69
2022-12-23T23:01:37.105Z,100755.91
2022-12-23T23:04:05.651Z,100767.06
2022-12-23T23:06:35.153Z,100768.50
2022-12-23T23:09:03.180Z,100767.94
2022-12-23T23:11:31.149Z,100786.09
2022-12-23T23:13:58.953Z,100774.50
2022-12-23T23:16:26.989Z,100775.53
2022-12-23T23:18:56.435Z,100783.69
2022-12-23T23:21:24.187Z,100786.09
2022-12-23T23:24:11.866Z,100786.44
2022-12-23T23:26:40.087Z,100785.69
2022-12-23T23:29:07.829Z,100796.88
2022-12-23T23:31:44.222Z,100803.69
2022-12-23T23:34:14.400Z,100807.53
2022-12-23T23:36:42.762Z,100813.38
2022-12-23T23:39:12.823Z,100821.38
2022-12-23T23:41:41.194Z,100822.53
2022-12-23T23:44:09.310Z,100826.50
2022-12-23T23:46:37.402Z,100824.13
2022-12-23T23:49:05.262Z,100835.47
2022-12-23T23:51:34.366Z,100833.09
2022-12-23T23:54:02.181Z,100835.31
2022-12-23T23:56:37.603Z,100839.72
2022-12-23T23:59:06.410Z,100849.09
